sensor_id;sensor_type;location;lat;lon;timestamp;P1;durP1;ratioP1;P2;durP2;ratioP2
20713;SDS011;10518;50.742;4.226;2023-04-16T00:00:46;7.80;;;3.07;;
20713;SDS011;10518;50.742;4.226;2023-04-16T00:03:12;3.87;;;2.60;;
20713;SDS011;10518;50.742;4.226;2023-04-16T00:05:38;5.20;;;2.17;;
20713;SDS011;10518;50.742;4.226;2023-04-16T00:08:04;7.90;;;2.13;;
20713;SDS011;10518;50.742;4.226;2023-04-16T00:10:29;5.93;;;2.53;;
20713;SDS011;10518;50.742;4.226;2023-04-16T00:12:55;3.43;;;1.87;;
20713;SDS011;10518;50.742;4.226;2023-04-16T00:15:21;7.83;;;2.33;;
20713;SDS011;10518;50.742;4.226;2023-04-16T00:17:46;3.83;;;1.93;;
20713;SDS011;10518;50.742;4.226;2023-04-16T00:20:12;5.47;;;1.90;;
20713;SDS011;10518;50.742;4.226;2023-04-16T00:22:38;4.90;;;2.13;;
20713;SDS011;10518;50.742;4.226;2023-04-16T00:25:03;6.97;;;2.80;;
20713;SDS011;10518;50.742;4.226;2023-04-16T00:27:29;3.00;;;1.50;;
20713;SDS011;10518;50.742;4.226;2023-04-16T00:29:55;5.03;;;2.27;;
20713;SDS011;10518;50.742;4.226;2023-04-16T00:32:20;2.57;;;1.60;;
20713;SDS011;10518;50.742;4.226;2023-04-16T00:34:46;3.73;;;1.80;;
20713;SDS011;10518;50.742;4.226;2023-04-16T00:37:11;3.53;;;2.10;;
20713;SDS011;10518;50.742;4.226;2023-04-16T00:39:37;6.17;;;2.50;;
20713;SDS011;10518;50.742;4.226;2023-04-16T00:42:03;2.93;;;1.70;;
20713;SDS011;10518;50.742;4.226;2023-04-16T00:44:28;2.60;;;1.47;;
20713;SDS011;10518;50.742;4.226;2023-04-16T00:46:54;2.67;;;1.77;;
20713;SDS011;10518;50.742;4.226;2023-04-16T00:49:21;5.60;;;3.10;;
20713;SDS011;10518;50.742;4.226;2023-04-16T00:51:48;3.93;;;1.77;;
20713;SDS011;10518;50.742;4.226;2023-04-16T00:54:14;1.60;;;1.50;;
20713;SDS011;10518;50.742;4.226;2023-04-16T00:56:40;4.27;;;1.73;;
20713;SDS011;10518;50.742;4.226;2023-04-16T00:59:06;5.43;;;2.50;;
20713;SDS011;10518;50.742;4.226;2023-04-16T01:01:32;2.20;;;1.67;;
20713;SDS011;10518;50.742;4.226;2023-04-16T01:03:58;2.10;;;1.67;;
20713;SDS011;10518;50.742;4.226;2023-04-16T01:06:23;2.80;;;1.97;;
20713;SDS011;10518;50.742;4.226;2023-04-16T01:08:50;2.30;;;1.70;;
20713;SDS011;10518;50.742;4.226;2023-04-16T01:11:15;2.80;;;1.80;;
20713;SDS011;10518;50.742;4.226;2023-04-16T01:13:41;4.57;;;1.97;;
20713;SDS011;10518;50.742;4.226;2023-04-16T01:16:10;2.93;;;2.23;;
20713;SDS011;10518;50.742;4.226;2023-04-16T01:18:37;3.83;;;1.67;;
20713;SDS011;10518;50.742;4.226;2023-04-16T01:21:03;2.63;;;1.30;;
20713;SDS011;10518;50.742;4.226;2023-04-16T01:23:29;3.53;;;2.17;;
20713;SDS011;10518;50.742;4.226;2023-04-16T01:25:55;1.60;;;1.27;;
20713;SDS011;10518;50.742;4.226;2023-04-16T01:28:21;3.27;;;1.77;;
20713;SDS011;10518;50.742;4.226;2023-04-16T01:30:46;4.20;;;1.77;;
20713;SDS011;10518;50.742;4.226;2023-04-16T01:33:12;5.80;;;2.13;;
20713;SDS011;10518;50.742;4.226;2023-04-16T01:35:39;3.67;;;1.67;;
20713;SDS011;10518;50.742;4.226;2023-04-16T01:38:05;2.00;;;1.50;;
20713;SDS011;10518;50.742;4.226;2023-04-16T01:40:33;2.60;;;1.50;;
20713;SDS011;10518;50.742;4.226;2023-04-16T01:42:59;3.30;;;1.83;;
20713;SDS011;10518;50.742;4.226;2023-04-16T01:45:25;3.33;;;1.90;;
20713;SDS011;10518;50.742;4.226;2023-04-16T01:47:50;2.93;;;1.67;;
20713;SDS011;10518;50.742;4.226;2023-04-16T01:50:17;3.43;;;2.00;;
20713;SDS011;10518;50.742;4.226;2023-04-16T01:52:43;3.00;;;1.87;;
20713;SDS011;10518;50.742;4.226;2023-04-16T01:55:09;1.57;;;1.10;;
20713;SDS011;10518;50.742;4.226;2023-04-16T01:57:35;2.00;;;1.80;;
20713;SDS011;10518;50.742;4.226;2023-04-16T02:00:01;5.60;;;2.20;;
20713;SDS011;10518;50.742;4.226;2023-04-16T02:02:29;3.50;;;1.90;;
20713;SDS011;10518;50.742;4.226;2023-04-16T02:04:55;2.87;;;1.80;;
20713;SDS011;10518;50.742;4.226;2023-04-16T02:07:21;2.60;;;1.77;;
20713;SDS011;10518;50.742;4.226;2023-04-16T02:09:48;2.20;;;1.53;;
20713;SDS011;10518;50.742;4.226;2023-04-16T02:12:16;2.73;;;1.80;;
20713;SDS011;10518;50.742;4.226;2023-04-16T02:14:42;2.67;;;1.83;;
20713;SDS011;10518;50.742;4.226;2023-04-16T02:17:08;2.00;;;1.47;;
20713;SDS011;10518;50.742;4.226;2023-04-16T02:19:33;2.97;;;1.80;;
20713;SDS011;10518;50.742;4.226;2023-04-16T02:21:59;2.30;;;1.60;;
20713;SDS011;10518;50.742;4.226;2023-04-16T02:24:28;4.10;;;1.63;;
20713;SDS011;10518;50.742;4.226;2023-04-16T02:26:53;5.23;;;1.70;;
20713;SDS011;10518;50.742;4.226;2023-04-16T02:29:19;3.30;;;2.10;;
20713;SDS011;10518;50.742;4.226;2023-04-16T02:31:46;3.70;;;1.53;;
20713;SDS011;10518;50.742;4.226;2023-04-16T02:34:12;2.30;;;1.27;;
20713;SDS011;10518;50.742;4.226;2023-04-16T02:36:38;2.03;;;1.30;;
20713;SDS011;10518;50.742;4.226;2023-04-16T02:39:04;3.33;;;1.60;;
20713;SDS011;10518;50.742;4.226;2023-04-16T02:41:30;1.77;;;1.30;;
20713;SDS011;10518;50.742;4.226;2023-04-16T02:43:56;3.90;;;1.30;;
20713;SDS011;10518;50.742;4.226;2023-04-16T02:46:21;4.20;;;1.13;;
20713;SDS011;10518;50.742;4.226;2023-04-16T02:48:47;1.60;;;1.00;;
20713;SDS011;10518;50.742;4.226;2023-04-16T02:51:12;3.90;;;1.03;;
20713;SDS011;10518;50.742;4.226;2023-04-16T02:53:38;2.10;;;1.30;;
20713;SDS011;10518;50.742;4.226;2023-04-16T02:56:04;1.27;;;0.80;;
20713;SDS011;10518;50.742;4.226;2023-04-16T02:58:30;0.90;;;0.80;;
20713;SDS011;10518;50.742;4.226;2023-04-16T03:00:56;1.07;;;0.80;;
20713;SDS011;10518;50.742;4.226;2023-04-16T03:03:21;0.70;;;0.70;;
20713;SDS011;10518;50.742;4.226;2023-04-16T03:05:47;0.60;;;0.60;;
20713;SDS011;10518;50.742;4.226;2023-04-16T03:08:13;0.63;;;0.60;;
20713;SDS011;10518;50.742;4.226;2023-04-16T03:10:39;2.50;;;0.97;;
20713;SDS011;10518;50.742;4.226;2023-04-16T03:13:05;1.20;;;1.00;;
20713;SDS011;10518;50.742;4.226;2023-04-16T03:15:31;3.10;;;1.57;;
20713;SDS011;10518;50.742;4.226;2023-04-16T03:17:57;4.40;;;0.70;;
20713;SDS011;10518;50.742;4.226;2023-04-16T03:20:23;0.60;;;0.57;;
20713;SDS011;10518;50.742;4.226;2023-04-16T03:22:48;0.70;;;0.70;;
20713;SDS011;10518;50.742;4.226;2023-04-16T03:25:16;3.70;;;0.80;;
20713;SDS011;10518;50.742;4.226;2023-04-16T03:27:42;0.57;;;0.57;;
20713;SDS011;10518;50.742;4.226;2023-04-16T03:30:09;0.80;;;0.70;;
20713;SDS011;10518;50.742;4.226;2023-04-16T03:32:36;0.60;;;0.50;;
20713;SDS011;10518;50.742;4.226;2023-04-16T03:35:02;5.73;;;1.27;;
20713;SDS011;10518;50.742;4.226;2023-04-16T03:37:29;1.37;;;0.77;;
20713;SDS011;10518;50.742;4.226;2023-04-16T03:39:54;0.50;;;0.50;;
20713;SDS011;10518;50.742;4.226;2023-04-16T03:42:20;1.70;;;0.80;;
20713;SDS011;10518;50.742;4.226;2023-04-16T03:44:45;0.60;;;0.60;;
20713;SDS011;10518;50.742;4.226;2023-04-16T03:47:11;0.60;;;0.60;;
20713;SDS011;10518;50.742;4.226;2023-04-16T03:49:37;0.90;;;0.70;;
20713;SDS011;10518;50.742;4.226;2023-04-16T03:52:02;2.90;;;1.20;;
20713;SDS011;10518;50.742;4.226;2023-04-16T03:54:28;4.53;;;1.20;;
20713;SDS011;10518;50.742;4.226;2023-04-16T03:56:54;0.83;;;0.83;;
20713;SDS011;10518;50.742;4.226;2023-04-16T03:59:20;1.23;;;0.90;;
20713;SDS011;10518;50.742;4.226;2023-04-16T04:01:46;1.57;;;0.87;;
20713;SDS011;10518;50.742;4.226;2023-04-16T04:04:12;0.87;;;0.80;;
20713;SDS011;10518;50.742;4.226;2023-04-16T04:06:38;1.57;;;1.17;;
20713;SDS011;10518;50.742;4.226;2023-04-16T04:09:03;0.80;;;0.80;;
20713;SDS011;10518;50.742;4.226;2023-04-16T04:11:29;2.00;;;0.90;;
20713;SDS011;10518;50.742;4.226;2023-04-16T04:13:55;1.03;;;0.93;;
20713;SDS011;10518;50.742;4.226;2023-04-16T04:16:20;0.70;;;0.70;;
20713;SDS011;10518;50.742;4.226;2023-04-16T04:18:46;1.87;;;0.93;;
20713;SDS011;10518;50.742;4.226;2023-04-16T04:21:11;2.97;;;1.10;;
20713;SDS011;10518;50.742;4.226;2023-04-16T04:23:37;3.13;;;0.90;;
20713;SDS011;10518;50.742;4.226;2023-04-16T04:26:03;1.50;;;1.17;;
20713;SDS011;10518;50.742;4.226;2023-04-16T04:28:30;3.63;;;1.00;;
20713;SDS011;10518;50.742;4.226;2023-04-16T04:30:56;2.03;;;1.00;;
20713;SDS011;10518;50.742;4.226;2023-04-16T04:33:23;4.27;;;1.40;;
20713;SDS011;10518;50.742;4.226;2023-04-16T04:35:52;5.00;;;0.93;;
20713;SDS011;10518;50.742;4.226;2023-04-16T04:38:18;6.37;;;1.13;;
20713;SDS011;10518;50.742;4.226;2023-04-16T04:40:46;1.00;;;0.73;;
20713;SDS011;10518;50.742;4.226;2023-04-16T04:43:18;1.77;;;1.07;;
20713;SDS011;10518;50.742;4.226;2023-04-16T04:45:44;2.20;;;1.23;;
20713;SDS011;10518;50.742;4.226;2023-04-16T04:48:11;0.60;;;0.60;;
20713;SDS011;10518;50.742;4.226;2023-04-16T04:50:37;4.77;;;1.40;;
20713;SDS011;10518;50.742;4.226;2023-04-16T04:53:02;1.00;;;0.90;;
20713;SDS011;10518;50.742;4.226;2023-04-16T04:55:34;1.00;;;0.93;;
20713;SDS011;10518;50.742;4.226;2023-04-16T04:58:01;2.53;;;1.03;;
20713;SDS011;10518;50.742;4.226;2023-04-16T05:00:28;3.97;;;0.77;;
20713;SDS011;10518;50.742;4.226;2023-04-16T05:02:54;2.07;;;0.90;;
20713;SDS011;10518;50.742;4.226;2023-04-16T05:05:19;2.87;;;1.50;;
20713;SDS011;10518;50.742;4.226;2023-04-16T05:07:45;1.23;;;1.13;;
20713;SDS011;10518;50.742;4.226;2023-04-16T05:10:11;3.03;;;1.00;;
20713;SDS011;10518;50.742;4.226;2023-04-16T05:12:36;0.80;;;0.80;;
20713;SDS011;10518;50.742;4.226;2023-04-16T05:15:04;3.97;;;0.80;;
20713;SDS011;10518;50.742;4.226;2023-04-16T05:17:30;2.57;;;1.10;;
20713;SDS011;10518;50.742;4.226;2023-04-16T05:19:55;6.80;;;0.70;;
20713;SDS011;10518;50.742;4.226;2023-04-16T05:22:21;2.17;;;0.90;;
20713;SDS011;10518;50.742;4.226;2023-04-16T05:24:47;1.33;;;0.87;;
20713;SDS011;10518;50.742;4.226;2023-04-16T05:27:12;2.43;;;0.70;;
20713;SDS011;10518;50.742;4.226;2023-04-16T05:29:38;4.53;;;0.80;;
20713;SDS011;10518;50.742;4.226;2023-04-16T05:32:03;0.97;;;0.67;;
20713;SDS011;10518;50.742;4.226;2023-04-16T05:34:29;3.87;;;1.40;;
20713;SDS011;10518;50.742;4.226;2023-04-16T05:36:55;5.57;;;1.30;;
20713;SDS011;10518;50.742;4.226;2023-04-16T05:39:20;0.70;;;0.70;;
20713;SDS011;10518;50.742;4.226;2023-04-16T05:41:46;6.30;;;1.00;;
20713;SDS011;10518;50.742;4.226;2023-04-16T05:44:11;1.97;;;1.00;;
20713;SDS011;10518;50.742;4.226;2023-04-16T05:46:37;0.93;;;0.87;;
20713;SDS011;10518;50.742;4.226;2023-04-16T05:49:03;0.70;;;0.70;;
20713;SDS011;10518;50.742;4.226;2023-04-16T05:51:28;1.00;;;1.00;;
20713;SDS011;10518;50.742;4.226;2023-04-16T05:53:54;1.57;;;0.90;;
20713;SDS011;10518;50.742;4.226;2023-04-16T05:56:19;1.97;;;1.00;;
20713;SDS011;10518;50.742;4.226;2023-04-16T05:58:45;1.93;;;1.07;;
20713;SDS011;10518;50.742;4.226;2023-04-16T06:01:11;1.17;;;0.70;;
20713;SDS011;10518;50.742;4.226;2023-04-16T06:03:37;3.13;;;0.90;;
20713;SDS011;10518;50.742;4.226;2023-04-16T06:06:02;2.40;;;1.10;;
20713;SDS011;10518;50.742;4.226;2023-04-16T06:08:28;1.73;;;1.00;;
20713;SDS011;10518;50.742;4.226;2023-04-16T06:10:54;6.80;;;1.27;;
20713;SDS011;10518;50.742;4.226;2023-04-16T06:13:20;1.53;;;1.10;;
20713;SDS011;10518;50.742;4.226;2023-04-16T06:15:46;5.00;;;1.10;;
20713;SDS011;10518;50.742;4.226;2023-04-16T06:18:12;0.83;;;0.77;;
20713;SDS011;10518;50.742;4.226;2023-04-16T06:20:37;1.43;;;0.90;;
20713;SDS011;10518;50.742;4.226;2023-04-16T06:23:03;2.83;;;1.07;;
20713;SDS011;10518;50.742;4.226;2023-04-16T06:25:28;3.10;;;1.80;;
20713;SDS011;10518;50.742;4.226;2023-04-16T06:27:54;1.77;;;1.10;;
20713;SDS011;10518;50.742;4.226;2023-04-16T06:30:20;1.70;;;1.33;;
20713;SDS011;10518;50.742;4.226;2023-04-16T06:32:45;3.03;;;1.10;;
20713;SDS011;10518;50.742;4.226;2023-04-16T06:35:11;3.33;;;1.47;;
20713;SDS011;10518;50.742;4.226;2023-04-16T06:37:37;1.53;;;1.03;;
20713;SDS011;10518;50.742;4.226;2023-04-16T06:40:03;6.43;;;1.20;;
20713;SDS011;10518;50.742;4.226;2023-04-16T06:42:29;2.13;;;1.50;;
20713;SDS011;10518;50.742;4.226;2023-04-16T06:44:55;6.17;;;1.47;;
20713;SDS011;10518;50.742;4.226;2023-04-16T06:47:20;3.90;;;1.20;;
20713;SDS011;10518;50.742;4.226;2023-04-16T06:49:46;4.70;;;1.20;;
20713;SDS011;10518;50.742;4.226;2023-04-16T06:52:12;3.63;;;1.07;;
20713;SDS011;10518;50.742;4.226;2023-04-16T06:54:38;4.43;;;1.33;;
20713;SDS011;10518;50.742;4.226;2023-04-16T06:57:03;1.50;;;1.17;;
20713;SDS011;10518;50.742;4.226;2023-04-16T06:59:29;2.23;;;1.13;;
20713;SDS011;10518;50.742;4.226;2023-04-16T07:01:55;1.73;;;1.10;;
20713;SDS011;10518;50.742;4.226;2023-04-16T07:04:21;2.03;;;1.10;;
20713;SDS011;10518;50.742;4.226;2023-04-16T07:06:47;2.03;;;1.10;;
20713;SDS011;10518;50.742;4.226;2023-04-16T07:09:13;6.60;;;1.17;;
20713;SDS011;10518;50.742;4.226;2023-04-16T07:11:38;2.00;;;1.10;;
20713;SDS011;10518;50.742;4.226;2023-04-16T07:14:04;1.63;;;0.90;;
20713;SDS011;10518;50.742;4.226;2023-04-16T07:16:30;2.27;;;1.30;;
20713;SDS011;10518;50.742;4.226;2023-04-16T07:18:56;1.83;;;1.30;;
20713;SDS011;10518;50.742;4.226;2023-04-16T07:21:21;2.10;;;1.40;;
20713;SDS011;10518;50.742;4.226;2023-04-16T07:23:47;1.50;;;1.10;;
20713;SDS011;10518;50.742;4.226;2023-04-16T07:26:12;1.47;;;1.10;;
20713;SDS011;10518;50.742;4.226;2023-04-16T07:28:38;2.67;;;1.50;;
20713;SDS011;10518;50.742;4.226;2023-04-16T07:31:04;1.50;;;1.23;;
20713;SDS011;10518;50.742;4.226;2023-04-16T07:33:29;4.07;;;1.20;;
20713;SDS011;10518;50.742;4.226;2023-04-16T07:35:55;1.97;;;1.20;;
20713;SDS011;10518;50.742;4.226;2023-04-16T07:38:21;2.47;;;1.50;;
20713;SDS011;10518;50.742;4.226;2023-04-16T07:40:46;5.23;;;1.63;;
20713;SDS011;10518;50.742;4.226;2023-04-16T07:43:12;1.97;;;1.30;;
20713;SDS011;10518;50.742;4.226;2023-04-16T07:45:40;2.60;;;1.43;;
20713;SDS011;10518;50.742;4.226;2023-04-16T07:48:05;3.30;;;1.60;;
20713;SDS011;10518;50.742;4.226;2023-04-16T07:50:31;2.80;;;1.30;;
20713;SDS011;10518;50.742;4.226;2023-04-16T07:52:57;2.97;;;1.53;;
20713;SDS011;10518;50.742;4.226;2023-04-16T07:55:23;2.80;;;1.73;;
20713;SDS011;10518;50.742;4.226;2023-04-16T07:57:48;3.53;;;1.70;;
20713;SDS011;10518;50.742;4.226;2023-04-16T08:00:14;1.30;;;1.20;;
20713;SDS011;10518;50.742;4.226;2023-04-16T08:02:40;2.47;;;1.37;;
20713;SDS011;10518;50.742;4.226;2023-04-16T08:05:06;6.90;;;1.43;;
20713;SDS011;10518;50.742;4.226;2023-04-16T08:07:31;4.97;;;2.20;;
20713;SDS011;10518;50.742;4.226;2023-04-16T08:09:57;4.13;;;2.37;;
20713;SDS011;10518;50.742;4.226;2023-04-16T08:12:23;3.87;;;1.97;;
20713;SDS011;10518;50.742;4.226;2023-04-16T08:14:49;1.53;;;1.20;;
20713;SDS011;10518;50.742;4.226;2023-04-16T08:17:14;3.93;;;2.13;;
20713;SDS011;10518;50.742;4.226;2023-04-16T08:19:41;12.00;;;2.40;;
20713;SDS011;10518;50.742;4.226;2023-04-16T08:22:09;5.43;;;2.80;;
20713;SDS011;10518;50.742;4.226;2023-04-16T08:24:35;4.13;;;2.57;;
20713;SDS011;10518;50.742;4.226;2023-04-16T08:27:01;3.33;;;2.27;;
20713;SDS011;10518;50.742;4.226;2023-04-16T08:29:27;4.27;;;1.87;;
20713;SDS011;10518;50.742;4.226;2023-04-16T08:31:52;4.57;;;1.90;;
20713;SDS011;10518;50.742;4.226;2023-04-16T08:34:18;12.50;;;2.30;;
20713;SDS011;10518;50.742;4.226;2023-04-16T08:36:44;4.90;;;2.23;;
20713;SDS011;10518;50.742;4.226;2023-04-16T08:39:10;3.97;;;2.13;;
20713;SDS011;10518;50.742;4.226;2023-04-16T08:41:37;4.43;;;1.90;;
20713;SDS011;10518;50.742;4.226;2023-04-16T08:44:10;5.67;;;2.17;;
20713;SDS011;10518;50.742;4.226;2023-04-16T08:46:43;5.20;;;1.90;;
20713;SDS011;10518;50.742;4.226;2023-04-16T08:49:10;2.50;;;1.70;;
20713;SDS011;10518;50.742;4.226;2023-04-16T08:51:42;3.20;;;2.20;;
20713;SDS011;10518;50.742;4.226;2023-04-16T08:54:13;3.07;;;1.80;;
20713;SDS011;10518;50.742;4.226;2023-04-16T08:57:02;7.20;;;2.60;;
20713;SDS011;10518;50.742;4.226;2023-04-16T08:59:30;4.83;;;2.40;;
20713;SDS011;10518;50.742;4.226;2023-04-16T09:01:57;3.50;;;2.10;;
20713;SDS011;10518;50.742;4.226;2023-04-16T09:04:25;3.90;;;2.23;;
20713;SDS011;10518;50.742;4.226;2023-04-16T09:06:52;3.13;;;1.97;;
20713;SDS011;10518;50.742;4.226;2023-04-16T09:09:20;5.27;;;2.63;;
20713;SDS011;10518;50.742;4.226;2023-04-16T09:11:48;4.50;;;2.17;;
20713;SDS011;10518;50.742;4.226;2023-04-16T09:14:15;3.40;;;2.10;;
20713;SDS011;10518;50.742;4.226;2023-04-16T09:16:41;3.13;;;2.03;;
20713;SDS011;10518;50.742;4.226;2023-04-16T09:19:09;4.93;;;2.13;;
20713;SDS011;10518;50.742;4.226;2023-04-16T09:21:34;4.53;;;1.53;;
20713;SDS011;10518;50.742;4.226;2023-04-16T09:24:00;3.60;;;1.87;;
20713;SDS011;10518;50.742;4.226;2023-04-16T09:26:27;3.73;;;2.70;;
20713;SDS011;10518;50.742;4.226;2023-04-16T09:28:53;4.10;;;2.43;;
20713;SDS011;10518;50.742;4.226;2023-04-16T09:31:20;6.53;;;2.10;;
20713;SDS011;10518;50.742;4.226;2023-04-16T09:34:02;3.73;;;2.33;;
20713;SDS011;10518;50.742;4.226;2023-04-16T09:36:32;7.07;;;1.60;;
20713;SDS011;10518;50.742;4.226;2023-04-16T09:38:59;5.60;;;2.20;;
20713;SDS011;10518;50.742;4.226;2023-04-16T09:41:29;3.10;;;1.90;;
20713;SDS011;10518;50.742;4.226;2023-04-16T09:46:23;2.80;;;1.93;;
20713;SDS011;10518;50.742;4.226;2023-04-16T09:48:55;5.33;;;2.27;;
20713;SDS011;10518;50.742;4.226;2023-04-16T09:51:20;3.90;;;1.57;;
20713;SDS011;10518;50.742;4.226;2023-04-16T09:53:46;6.03;;;2.53;;
20713;SDS011;10518;50.742;4.226;2023-04-16T09:56:17;3.90;;;1.80;;
20713;SDS011;10518;50.742;4.226;2023-04-16T09:58:47;5.37;;;2.23;;
20713;SDS011;10518;50.742;4.226;2023-04-16T10:01:12;4.17;;;2.93;;
20713;SDS011;10518;50.742;4.226;2023-04-16T10:03:38;2.93;;;1.97;;
20713;SDS011;10518;50.742;4.226;2023-04-16T10:06:17;5.27;;;1.63;;
20713;SDS011;10518;50.742;4.226;2023-04-16T10:11:13;6.30;;;2.30;;
20713;SDS011;10518;50.742;4.226;2023-04-16T10:13:39;7.17;;;2.73;;
20713;SDS011;10518;50.742;4.226;2023-04-16T10:16:05;1.90;;;1.53;;
20713;SDS011;10518;50.742;4.226;2023-04-16T10:18:32;3.13;;;1.90;;
20713;SDS011;10518;50.742;4.226;2023-04-16T10:21:02;7.37;;;2.90;;
20713;SDS011;10518;50.742;4.226;2023-04-16T10:23:28;6.57;;;2.07;;
20713;SDS011;10518;50.742;4.226;2023-04-16T10:25:55;4.83;;;2.47;;
20713;SDS011;10518;50.742;4.226;2023-04-16T10:28:23;4.57;;;2.33;;
20713;SDS011;10518;50.742;4.226;2023-04-16T10:30:49;4.80;;;1.87;;
20713;SDS011;10518;50.742;4.226;2023-04-16T10:33:19;2.83;;;2.03;;
20713;SDS011;10518;50.742;4.226;2023-04-16T10:35:49;2.83;;;1.80;;
20713;SDS011;10518;50.742;4.226;2023-04-16T10:38:33;5.40;;;1.73;;
20713;SDS011;10518;50.742;4.226;2023-04-16T10:41:02;2.77;;;1.77;;
20713;SDS011;10518;50.742;4.226;2023-04-16T10:43:38;5.83;;;2.37;;
20713;SDS011;10518;50.742;4.226;2023-04-16T10:48:52;5.70;;;2.00;;
20713;SDS011;10518;50.742;4.226;2023-04-16T10:51:23;2.33;;;1.57;;
20713;SDS011;10518;50.742;4.226;2023-04-16T10:53:53;3.47;;;1.70;;
20713;SDS011;10518;50.742;4.226;2023-04-16T10:56:27;3.83;;;1.53;;
20713;SDS011;10518;50.742;4.226;2023-04-16T10:58:55;3.07;;;1.90;;
20713;SDS011;10518;50.742;4.226;2023-04-16T11:01:34;2.30;;;1.43;;
20713;SDS011;10518;50.742;4.226;2023-04-16T11:12:35;5.43;;;1.80;;
20713;SDS011;10518;50.742;4.226;2023-04-16T11:15:07;5.60;;;2.00;;
20713;SDS011;10518;50.742;4.226;2023-04-16T11:20:07;2.50;;;1.67;;
20713;SDS011;10518;50.742;4.226;2023-04-16T11:22:34;3.07;;;2.03;;
20713;SDS011;10518;50.742;4.226;2023-04-16T11:25:01;8.50;;;1.90;;
20713;SDS011;10518;50.742;4.226;2023-04-16T11:27:28;3.60;;;2.07;;
20713;SDS011;10518;50.742;4.226;2023-04-16T11:32:24;5.33;;;1.97;;
20713;SDS011;10518;50.742;4.226;2023-04-16T11:34:50;4.10;;;2.20;;
20713;SDS011;10518;50.742;4.226;2023-04-16T11:37:18;3.70;;;1.60;;
20713;SDS011;10518;50.742;4.226;2023-04-16T11:39:46;2.30;;;1.83;;
20713;SDS011;10518;50.742;4.226;2023-04-16T11:42:20;2.63;;;1.90;;
20713;SDS011;10518;50.742;4.226;2023-04-16T11:44:50;2.40;;;1.90;;
20713;SDS011;10518;50.742;4.226;2023-04-16T11:47:17;7.93;;;2.30;;
20713;SDS011;10518;50.742;4.226;2023-04-16T11:49:43;6.23;;;2.50;;
20713;SDS011;10518;50.742;4.226;2023-04-16T11:52:08;3.87;;;2.47;;
20713;SDS011;10518;50.742;4.226;2023-04-16T11:54:34;4.87;;;2.57;;
20713;SDS011;10518;50.742;4.226;2023-04-16T11:57:00;4.60;;;2.53;;
20713;SDS011;10518;50.742;4.226;2023-04-16T11:59:28;3.87;;;2.07;;
20713;SDS011;10518;50.742;4.226;2023-04-16T12:01:55;6.20;;;2.63;;
20713;SDS011;10518;50.742;4.226;2023-04-16T12:04:21;6.87;;;2.20;;
20713;SDS011;10518;50.742;4.226;2023-04-16T12:09:30;7.37;;;2.57;;
20713;SDS011;10518;50.742;4.226;2023-04-16T12:11:56;4.00;;;1.90;;
20713;SDS011;10518;50.742;4.226;2023-04-16T12:14:22;3.83;;;2.20;;
20713;SDS011;10518;50.742;4.226;2023-04-16T12:16:48;9.00;;;3.10;;
20713;SDS011;10518;50.742;4.226;2023-04-16T12:19:13;7.57;;;2.43;;
20713;SDS011;10518;50.742;4.226;2023-04-16T12:21:40;3.43;;;2.30;;
20713;SDS011;10518;50.742;4.226;2023-04-16T12:24:09;4.13;;;2.60;;
20713;SDS011;10518;50.742;4.226;2023-04-16T12:29:15;4.03;;;2.30;;
20713;SDS011;10518;50.742;4.226;2023-04-16T12:31:42;9.43;;;2.53;;
20713;SDS011;10518;50.742;4.226;2023-04-16T12:34:08;8.37;;;2.53;;
20713;SDS011;10518;50.742;4.226;2023-04-16T12:36:36;5.50;;;2.40;;
20713;SDS011;10518;50.742;4.226;2023-04-16T12:39:02;4.30;;;2.23;;
20713;SDS011;10518;50.742;4.226;2023-04-16T12:41:29;5.47;;;2.80;;
20713;SDS011;10518;50.742;4.226;2023-04-16T12:44:04;6.33;;;2.80;;
20713;SDS011;10518;50.742;4.226;2023-04-16T12:46:33;7.63;;;2.97;;
20713;SDS011;10518;50.742;4.226;2023-04-16T12:48:59;12.90;;;3.83;;
20713;SDS011;10518;50.742;4.226;2023-04-16T12:51:25;6.43;;;3.07;;
20713;SDS011;10518;50.742;4.226;2023-04-16T12:53:51;5.33;;;2.23;;
20713;SDS011;10518;50.742;4.226;2023-04-16T12:56:17;2.97;;;1.80;;
20713;SDS011;10518;50.742;4.226;2023-04-16T12:58:43;7.10;;;2.67;;
20713;SDS011;10518;50.742;4.226;2023-04-16T13:01:09;4.63;;;3.00;;
20713;SDS011;10518;50.742;4.226;2023-04-16T13:03:35;3.50;;;2.17;;
20713;SDS011;10518;50.742;4.226;2023-04-16T13:06:01;6.30;;;3.23;;
20713;SDS011;10518;50.742;4.226;2023-04-16T13:08:27;6.97;;;3.10;;
20713;SDS011;10518;50.742;4.226;2023-04-16T13:10:53;4.63;;;3.00;;
20713;SDS011;10518;50.742;4.226;2023-04-16T13:13:19;9.33;;;2.60;;
20713;SDS011;10518;50.742;4.226;2023-04-16T13:15:45;4.43;;;2.33;;
20713;SDS011;10518;50.742;4.226;2023-04-16T13:18:10;7.73;;;2.47;;
20713;SDS011;10518;50.742;4.226;2023-04-16T13:20:36;5.57;;;2.70;;
20713;SDS011;10518;50.742;4.226;2023-04-16T13:23:01;8.27;;;3.17;;
20713;SDS011;10518;50.742;4.226;2023-04-16T13:25:29;4.20;;;2.63;;
20713;SDS011;10518;50.742;4.226;2023-04-16T13:27:55;8.40;;;3.07;;
20713;SDS011;10518;50.742;4.226;2023-04-16T13:30:20;9.47;;;3.30;;
20713;SDS011;10518;50.742;4.226;2023-04-16T13:32:46;7.63;;;3.40;;
20713;SDS011;10518;50.742;4.226;2023-04-16T13:35:12;6.50;;;2.93;;
20713;SDS011;10518;50.742;4.226;2023-04-16T13:37:38;3.63;;;2.53;;
20713;SDS011;10518;50.742;4.226;2023-04-16T13:40:04;6.57;;;3.10;;
20713;SDS011;10518;50.742;4.226;2023-04-16T13:42:30;7.27;;;2.67;;
20713;SDS011;10518;50.742;4.226;2023-04-16T13:44:56;5.43;;;3.37;;
20713;SDS011;10518;50.742;4.226;2023-04-16T13:47:22;6.20;;;3.00;;
20713;SDS011;10518;50.742;4.226;2023-04-16T13:49:48;10.40;;;3.20;;
20713;SDS011;10518;50.742;4.226;2023-04-16T13:52:14;12.20;;;3.27;;
20713;SDS011;10518;50.742;4.226;2023-04-16T13:54:39;4.07;;;2.47;;
20713;SDS011;10518;50.742;4.226;2023-04-16T13:57:05;4.97;;;2.80;;
20713;SDS011;10518;50.742;4.226;2023-04-16T13:59:31;5.57;;;3.00;;
20713;SDS011;10518;50.742;4.226;2023-04-16T14:01:57;9.43;;;4.30;;
20713;SDS011;10518;50.742;4.226;2023-04-16T14:04:22;7.33;;;3.67;;
20713;SDS011;10518;50.742;4.226;2023-04-16T14:06:48;6.30;;;3.17;;
20713;SDS011;10518;50.742;4.226;2023-04-16T14:09:14;4.17;;;2.60;;
20713;SDS011;10518;50.742;4.226;2023-04-16T14:11:40;5.07;;;2.77;;
20713;SDS011;10518;50.742;4.226;2023-04-16T14:14:05;4.10;;;2.73;;
20713;SDS011;10518;50.742;4.226;2023-04-16T14:16:31;11.93;;;2.87;;
20713;SDS011;10518;50.742;4.226;2023-04-16T14:18:57;4.20;;;2.63;;
20713;SDS011;10518;50.742;4.226;2023-04-16T14:21:22;6.00;;;3.17;;
20713;SDS011;10518;50.742;4.226;2023-04-16T14:23:48;4.70;;;2.97;;
20713;SDS011;10518;50.742;4.226;2023-04-16T14:26:13;4.40;;;2.37;;
20713;SDS011;10518;50.742;4.226;2023-04-16T14:28:39;6.03;;;3.17;;
20713;SDS011;10518;50.742;4.226;2023-04-16T14:31:05;7.77;;;3.40;;
20713;SDS011;10518;50.742;4.226;2023-04-16T14:33:31;6.87;;;3.07;;
20713;SDS011;10518;50.742;4.226;2023-04-16T14:35:56;7.80;;;2.97;;
20713;SDS011;10518;50.742;4.226;2023-04-16T14:38:22;4.73;;;2.87;;
20713;SDS011;10518;50.742;4.226;2023-04-16T14:40:48;5.32;;;2.90;;
20713;SDS011;10518;50.742;4.226;2023-04-16T14:43:13;4.87;;;2.63;;
20713;SDS011;10518;50.742;4.226;2023-04-16T14:45:39;5.03;;;3.03;;
20713;SDS011;10518;50.742;4.226;2023-04-16T14:48:05;6.87;;;2.53;;
20713;SDS011;10518;50.742;4.226;2023-04-16T14:50:31;5.43;;;3.20;;
20713;SDS011;10518;50.742;4.226;2023-04-16T14:53:01;7.70;;;3.53;;
20713;SDS011;10518;50.742;4.226;2023-04-16T14:55:27;5.33;;;3.00;;
20713;SDS011;10518;50.742;4.226;2023-04-16T14:57:53;4.90;;;2.87;;
20713;SDS011;10518;50.742;4.226;2023-04-16T15:00:20;4.53;;;3.13;;
20713;SDS011;10518;50.742;4.226;2023-04-16T15:02:46;4.20;;;2.90;;
20713;SDS011;10518;50.742;4.226;2023-04-16T15:05:12;5.33;;;2.80;;
20713;SDS011;10518;50.742;4.226;2023-04-16T15:07:37;5.22;;;2.78;;
20713;SDS011;10518;50.742;4.226;2023-04-16T15:10:03;6.87;;;2.50;;